Terminal Aerodrome Forecast
Issued by NWS Raleigh/Durham, NC

Home | Current Version | Previous Version | Text Only | Print | Product List | Glossary On
Versions: 1 2 3 4 5 6 7 8 9 10 11 12 13 14 15 16 17 18 19 20 21 22 23 24 25 26 27 28 29 30 31 32 33 34 35 36
000
FTUS42 KRAH 040701 AAA
TAFFAY
TAF AMD
KFAY 040701Z 0407/0506 VRB04KT P6SM FEW250
      TEMPO 0409/0412 5SM BR
     FM041500 36005KT P6SM FEW040 SCT250
     FM041800 03007KT P6SM BKN050 PROB30 0418/0424 VRB15G25KT 2SM
      TSRA BKN025CB=

USA.gov is the U.S. government's official web portal to all federal, state and local government web resources and services.